createdAt,value
2023-02-18T00:01:48.304Z,11.16
2023-02-18T00:05:51.389Z,11.15
2023-02-18T00:09:55.720Z,11.13
2023-02-18T00:14:00.354Z,11.16
2023-02-18T00:18:03.396Z,11.13
2023-02-18T00:22:06.431Z,11.13
2023-02-18T00:26:13.493Z,11.13
2023-02-18T00:30:17.366Z,11.12
2023-02-18T00:34:20.446Z,11.09
2023-02-18T00:38:23.588Z,11.08
2023-02-18T00:42:28.072Z,11.07
2023-02-18T00:46:31.446Z,11.08
2023-02-18T00:50:37.093Z,11.06
2023-02-18T00:54:40.082Z,11.08
2023-02-18T00:58:44.541Z,11.08
2023-02-18T01:02:47.630Z,11.09
2023-02-18T01:06:50.624Z,11.08
2023-02-18T01:10:55.406Z,11.06
2023-02-18T01:14:59.865Z,11.01
2023-02-18T01:19:02.846Z,10.98
2023-02-18T01:23:06.433Z,10.94
2023-02-18T01:27:09.477Z,10.87
2023-02-18T01:31:15.017Z,10.78
2023-02-18T01:35:20.652Z,10.72
2023-02-18T01:39:23.767Z,10.66
2023-02-18T01:43:26.944Z,10.63
2023-02-18T01:47:31.304Z,10.58
2023-02-18T01:51:38.305Z,10.56
2023-02-18T01:55:41.421Z,10.55
2023-02-18T01:59:49.137Z,10.50
2023-02-18T02:03:53.508Z,10.51
2023-02-18T02:07:56.995Z,10.49
2023-02-18T02:12:23.326Z,10.50
2023-02-18T02:16:33.098Z,10.52
2023-02-18T02:21:12.833Z,10.51
2023-02-18T02:25:40.365Z,10.52
2023-02-18T02:30:26.182Z,10.54
2023-02-18T02:34:40.563Z,10.58
2023-02-18T02:38:56.179Z,10.57
2023-02-18T02:43:07.492Z,10.57
2023-02-18T02:47:15.584Z,10.63
2023-02-18T02:51:25.115Z,10.64
2023-02-18T02:55:28.180Z,10.66
2023-02-18T02:59:34.457Z,10.69
2023-02-18T03:04:05.213Z,10.74
2023-02-18T03:08:30.681Z,10.75
2023-02-18T03:12:43.051Z,10.77
2023-02-18T03:16:51.498Z,10.78
2023-02-18T03:20:59.006Z,10.78
2023-02-18T03:25:05.255Z,10.75
2023-02-18T03:29:11.765Z,10.75
2023-02-18T03:33:18.964Z,10.78
2023-02-18T03:37:22.464Z,10.80
2023-02-18T03:41:28.429Z,10.79
2023-02-18T03:45:31.563Z,10.80
2023-02-18T03:49:34.592Z,10.84
2023-02-18T03:53:37.657Z,10.82
2023-02-18T03:57:42.312Z,10.78
2023-02-18T04:01:45.356Z,10.66
2023-02-18T04:05:48.367Z,10.56
2023-02-18T04:09:51.367Z,10.51
2023-02-18T04:13:55.699Z,10.46
2023-02-18T04:17:58.724Z,10.43
2023-02-18T04:22:01.723Z,10.41
2023-02-18T04:26:05.288Z,10.35
2023-02-18T04:30:10.538Z,10.38
2023-02-18T04:34:13.573Z,10.38
2023-02-18T04:38:16.606Z,10.36
2023-02-18T04:42:19.714Z,10.35
2023-02-18T04:46:24.140Z,10.34
2023-02-18T04:50:27.173Z,10.31
2023-02-18T04:54:30.315Z,10.33
2023-02-18T04:58:33.333Z,10.32
2023-02-18T05:02:37.755Z,10.30
2023-02-18T05:06:43.121Z,10.30
2023-02-18T05:10:46.208Z,10.27
2023-02-18T05:14:49.249Z,10.27
2023-02-18T05:18:53.673Z,10.25
2023-02-18T05:22:56.761Z,10.26
2023-02-18T05:26:59.784Z,10.28
2023-02-18T05:31:03.045Z,10.26
2023-02-18T05:35:08.813Z,10.26
2023-02-18T05:39:11.935Z,10.22
2023-02-18T05:43:15.268Z,10.24
2023-02-18T05:47:18.335Z,10.26
2023-02-18T05:51:22.718Z,10.28
2023-02-18T05:55:25.732Z,10.36
2023-02-18T05:59:28.763Z,10.34
2023-02-18T06:03:31.751Z,10.36
2023-02-18T06:07:36.323Z,10.39
2023-02-18T06:11:39.360Z,10.50
2023-02-18T06:15:42.384Z,10.48
2023-02-18T06:19:45.567Z,10.58
2023-02-18T06:23:50.152Z,10.63
2023-02-18T06:27:53.200Z,10.61
2023-02-18T06:31:56.323Z,10.68
2023-02-18T06:36:00.831Z,10.70
2023-02-18T06:40:06.232Z,10.71
2023-02-18T06:44:09.651Z,10.75
2023-02-18T06:48:13.452Z,10.77
2023-02-18T06:52:16.458Z,10.70
2023-02-18T06:56:20.851Z,10.71
2023-02-18T07:00:24.099Z,10.64
2023-02-18T07:04:27.129Z,10.48
2023-02-18T07:08:30.936Z,10.39
2023-02-18T07:12:35.453Z,10.30
2023-02-18T07:16:38.664Z,10.37
2023-02-18T07:20:41.765Z,10.32
2023-02-18T07:24:44.844Z,10.23
2023-02-18T07:28:49.319Z,10.19
2023-02-18T07:32:52.387Z,10.25
2023-02-18T07:36:55.548Z,10.32
2023-02-18T07:40:59.279Z,10.31
2023-02-18T07:45:04.198Z,10.28
2023-02-18T07:49:07.502Z,10.11
2023-02-18T07:53:11.752Z,9.99
2023-02-18T07:57:14.867Z,9.93
2023-02-18T08:01:19.594Z,9.88
2023-02-18T08:05:22.933Z,9.81
2023-02-18T08:09:26.028Z,9.80
2023-02-18T08:13:29.597Z,9.75
2023-02-18T08:17:34.225Z,9.72
2023-02-18T08:21:37.305Z,9.79
2023-02-18T08:25:40.518Z,9.83
2023-02-18T08:29:43.869Z,9.93
2023-02-18T08:33:49.214Z,10.02
2023-02-18T08:37:53.916Z,10.06
2023-02-18T08:41:58.715Z,10.16
2023-02-18T08:46:01.961Z,10.29
2023-02-18T08:50:07.276Z,10.35
2023-02-18T08:54:10.384Z,10.39
2023-02-18T08:58:14.020Z,10.37
2023-02-18T09:02:17.196Z,10.42
2023-02-18T09:06:22.100Z,10.44
2023-02-18T09:10:26.179Z,10.58
2023-02-18T09:14:29.705Z,10.65
2023-02-18T09:18:35.513Z,10.71
2023-02-18T09:22:40.558Z,10.79
2023-02-18T09:26:43.739Z,10.85
2023-02-18T09:30:47.255Z,10.81
2023-02-18T09:34:50.463Z,10.98
2023-02-18T09:38:55.700Z,11.19
2023-02-18T09:43:00.181Z,11.18
2023-02-18T09:47:06.583Z,11.08
2023-02-18T09:51:15.357Z,10.96
2023-02-18T09:55:23.115Z,10.95
2023-02-18T09:59:27.699Z,10.88
2023-02-18T10:03:31.152Z,10.89
2023-02-18T10:07:37.035Z,10.86
2023-02-18T10:11:44.449Z,10.72
2023-02-18T10:15:49.290Z,10.78
2023-02-18T10:19:54.536Z,10.79
2023-02-18T10:24:02.410Z,10.80
2023-02-18T10:28:07.086Z,10.65
2023-02-18T10:32:21.013Z,10.23
2023-02-18T10:36:28.172Z,10.00
2023-02-18T10:40:42.373Z,9.87
2023-02-18T10:45:03.161Z,9.79
2023-02-18T10:49:29.291Z,9.75
2023-02-18T10:53:36.212Z,9.64
2023-02-18T10:57:49.798Z,9.60
2023-02-18T11:01:59.283Z,9.55
2023-02-18T11:06:02.472Z,9.57
2023-02-18T11:10:16.161Z,9.55
2023-02-18T11:14:38.849Z,9.52
2023-02-18T11:18:45.531Z,9.47
2023-02-18T11:22:49.964Z,9.52
2023-02-18T11:26:53.191Z,9.57
2023-02-18T11:31:00.180Z,9.54
2023-02-18T11:35:05.995Z,9.55
2023-02-18T11:39:21.498Z,9.53
2023-02-18T11:43:30.614Z,9.58
2023-02-18T11:47:36.160Z,9.63
2023-02-18T11:51:41.816Z,9.67
2023-02-18T11:55:55.516Z,9.72
2023-02-18T12:00:00.306Z,9.71
2023-02-18T12:04:10.200Z,9.68
2023-02-18T12:08:20.482Z,9.67
2023-02-18T12:12:28.772Z,9.68
2023-02-18T12:16:40.726Z,9.69
2023-02-18T12:21:12.810Z,9.77
2023-02-18T12:25:30.935Z,9.70
2023-02-18T12:29:50.779Z,9.72
2023-02-18T12:34:12.816Z,9.74
2023-02-18T12:38:34.195Z,9.73
2023-02-18T12:42:53.226Z,9.77
2023-02-18T12:47:21.807Z,9.79
2023-02-18T12:51:36.459Z,9.80
2023-02-18T12:55:54.277Z,9.79
2023-02-18T13:00:45.333Z,9.81
2023-02-18T13:04:57.569Z,9.80
2023-02-18T13:09:09.861Z,9.83
2023-02-18T13:13:17.516Z,9.87
2023-02-18T13:17:23.292Z,9.90
2023-02-18T13:21:27.537Z,9.93
2023-02-18T13:25:34.412Z,9.95
2023-02-18T13:29:42.924Z,9.97
2023-02-18T13:33:56.148Z,9.99
2023-02-18T13:38:14.659Z,10.03
2023-02-18T13:42:28.415Z,10.03
2023-02-18T13:46:34.381Z,10.07
2023-02-18T13:50:44.447Z,10.10
2023-02-18T13:54:51.867Z,10.12
2023-02-18T13:59:00.732Z,10.14
2023-02-18T14:03:22.851Z,10.17
2023-02-18T14:07:47.996Z,10.16
2023-02-18T14:11:58.112Z,10.17
2023-02-18T14:16:02.470Z,10.18
2023-02-18T14:20:29.445Z,10.22
2023-02-18T14:24:49.367Z,10.22
2023-02-18T14:28:57.457Z,10.23
2023-02-18T14:33:03.008Z,10.24
2023-02-18T14:37:23.051Z,10.22
2023-02-18T14:41:46.608Z,10.23
2023-02-18T14:46:15.410Z,10.22
2023-02-18T14:50:21.052Z,10.23
2023-02-18T14:54:26.924Z,10.24
2023-02-18T14:58:37.056Z,10.24
2023-02-18T15:02:40.270Z,10.20
2023-02-18T15:06:44.058Z,10.23
2023-02-18T15:10:51.674Z,10.25
2023-02-18T15:15:03.799Z,10.26
2023-02-18T15:19:11.486Z,10.29
2023-02-18T15:23:18.267Z,10.29
2023-02-18T15:27:23.692Z,10.31
2023-02-18T15:31:31.605Z,10.34
2023-02-18T15:35:34.949Z,10.34
2023-02-18T15:39:39.608Z,10.38
2023-02-18T15:43:54.463Z,10.42
2023-02-18T15:48:00.610Z,10.46
2023-02-18T15:52:05.208Z,10.50
2023-02-18T15:56:16.380Z,10.55
2023-02-18T16:00:29.632Z,10.60
2023-02-18T16:04:38.414Z,10.62
2023-02-18T16:08:42.625Z,10.65
2023-02-18T16:12:50.500Z,10.65
2023-02-18T16:17:18.931Z,10.65
2023-02-18T16:21:33.144Z,10.65
2023-02-18T16:25:43.130Z,10.65
2023-02-18T16:29:46.629Z,10.65
2023-02-18T16:33:50.439Z,10.66
2023-02-18T16:37:57.934Z,10.66
2023-02-18T16:42:01.349Z,10.65
2023-02-18T16:46:09.268Z,10.62
2023-02-18T16:50:18.651Z,10.59
2023-02-18T16:54:23.377Z,10.54
2023-02-18T16:58:26.675Z,10.55
2023-02-18T17:02:32.216Z,10.51
2023-02-18T17:06:35.772Z,10.53
2023-02-18T17:10:40.724Z,10.53
2023-02-18T17:14:44.005Z,10.52
2023-02-18T17:18:47.920Z,10.43
2023-02-18T17:22:51.571Z,10.38
2023-02-18T17:26:57.119Z,10.33
2023-02-18T17:31:00.436Z,10.30
2023-02-18T17:35:04.146Z,10.29
2023-02-18T17:39:08.011Z,10.29
2023-02-18T17:43:14.752Z,10.25
2023-02-18T17:47:17.935Z,10.26
2023-02-18T17:51:25.514Z,10.26
2023-02-18T17:55:31.652Z,10.26
2023-02-18T17:59:36.389Z,10.27
2023-02-18T18:03:40.068Z,10.24
2023-02-18T18:07:43.464Z,10.27
2023-02-18T18:11:46.818Z,10.26
2023-02-18T18:15:52.275Z,10.25
2023-02-18T18:19:55.896Z,10.27
2023-02-18T18:23:59.822Z,10.23
2023-02-18T18:28:03.126Z,10.26
2023-02-18T18:32:08.095Z,10.27
2023-02-18T18:36:11.488Z,10.30
2023-02-18T18:40:15.329Z,10.29
2023-02-18T18:44:18.747Z,10.35
2023-02-18T18:48:24.298Z,10.35
2023-02-18T18:52:27.504Z,10.42
2023-02-18T18:56:30.848Z,10.42
2023-02-18T19:00:37.033Z,10.42
2023-02-18T19:04:42.074Z,10.43
2023-02-18T19:08:47.970Z,10.46
2023-02-18T19:12:52.580Z,10.49
2023-02-18T19:16:56.280Z,10.52
2023-02-18T19:21:03.540Z,10.52
2023-02-18T19:25:07.954Z,10.52
2023-02-18T19:29:11.298Z,10.44
2023-02-18T19:33:16.154Z,10.40
2023-02-18T19:37:23.085Z,10.36
2023-02-18T19:41:26.765Z,10.34
2023-02-18T19:45:30.147Z,10.34
2023-02-18T19:49:33.736Z,10.34
2023-02-18T19:53:38.560Z,10.34
2023-02-18T19:57:41.921Z,10.30
2023-02-18T20:01:45.159Z,10.29
2023-02-18T20:05:48.910Z,10.30
2023-02-18T20:09:54.654Z,10.27
2023-02-18T20:13:57.951Z,10.26
2023-02-18T20:18:01.307Z,10.23
2023-02-18T20:22:09.572Z,10.24
2023-02-18T20:26:15.275Z,10.24
2023-02-18T20:30:18.654Z,10.23
2023-02-18T20:34:24.049Z,10.24
2023-02-18T20:38:27.317Z,10.20
2023-02-18T20:42:33.347Z,10.21
2023-02-18T20:46:38.077Z,10.25
2023-02-18T20:50:41.494Z,10.24
2023-02-18T20:54:45.816Z,10.30
2023-02-18T20:58:51.445Z,10.33
2023-02-18T21:02:54.878Z,10.34
2023-02-18T21:06:58.322Z,10.28
2023-02-18T21:11:04.035Z,10.27
2023-02-18T21:15:10.426Z,10.26
2023-02-18T21:19:16.901Z,10.27
2023-02-18T21:23:20.197Z,10.28
2023-02-18T21:27:23.737Z,10.30
2023-02-18T21:31:30.649Z,10.31
2023-02-18T21:35:37.027Z,10.31
2023-02-18T21:39:40.433Z,10.32
2023-02-18T21:43:45.862Z,10.31
2023-02-18T21:47:50.616Z,10.29
2023-02-18T21:52:02.281Z,10.27
2023-02-18T21:56:11.478Z,10.23
2023-02-18T22:00:21.034Z,10.22
2023-02-18T22:04:26.613Z,10.21
2023-02-18T22:08:29.868Z,10.23
2023-02-18T22:12:34.074Z,10.22
2023-02-18T22:16:37.341Z,10.22
2023-02-18T22:20:42.204Z,10.20
2023-02-18T22:24:45.605Z,10.16
2023-02-18T22:28:54.726Z,10.16
2023-02-18T22:32:58.380Z,10.12
2023-02-18T22:37:03.317Z,10.09
2023-02-18T22:41:10.339Z,10.11
2023-02-18T22:45:13.801Z,10.12
2023-02-18T22:49:18.956Z,10.13
2023-02-18T22:53:23.528Z,10.15
2023-02-18T22:57:26.738Z,10.16
2023-02-18T23:01:32.808Z,10.16
2023-02-18T23:05:36.678Z,10.18
2023-02-18T23:09:41.317Z,10.20
2023-02-18T23:13:45.586Z,10.22
2023-02-18T23:17:50.455Z,10.20
2023-02-18T23:21:54.009Z,10.24
2023-02-18T23:26:03.661Z,10.21
2023-02-18T23:30:07.462Z,10.22
2023-02-18T23:34:15.066Z,10.25
2023-02-18T23:38:18.485Z,10.27
2023-02-18T23:42:23.024Z,10.23
2023-02-18T23:46:28.406Z,10.24
2023-02-18T23:50:31.587Z,10.24
2023-02-18T23:54:34.884Z,10.18
2023-02-18T23:58:43.831Z,10.20
